createdAt,value
2018-04-12T00:00:36.091Z,93888.70
2018-04-12T00:03:04.481Z,93900.08
2018-04-12T00:05:33.042Z,93900.22
2018-04-12T00:08:01.449Z,93893.14
2018-04-12T00:10:29.860Z,93884.65
2018-04-12T00:12:58.264Z,93889.63
2018-04-12T00:15:26.762Z,93889.14
2018-04-12T00:17:55.305Z,93888.30
2018-04-12T00:20:23.725Z,93889.48
2018-04-12T00:22:53.028Z,93879.66
2018-04-12T00:25:21.454Z,93880.66
2018-04-12T00:27:49.870Z,93870.72
2018-04-12T00:30:18.327Z,93868.50
2018-04-12T00:32:46.754Z,93873.37
2018-04-12T00:35:15.214Z,93865.28
2018-04-12T00:37:43.620Z,93857.13
2018-04-12T00:40:12.024Z,93863.92
2018-04-12T00:42:40.481Z,93856.02
2018-04-12T00:45:08.865Z,93858.66
2018-04-12T00:47:37.261Z,93854.81
2018-04-12T00:50:05.658Z,93840.86
2018-04-12T00:52:34.064Z,93847.84
2018-04-12T00:55:02.522Z,93838.94
2018-04-12T00:57:30.904Z,93844.64
2018-04-12T00:59:59.349Z,93845.48
2018-04-12T01:02:27.754Z,93835.85
2018-04-12T01:04:56.150Z,93837.16
2018-04-12T01:07:24.597Z,93831.98
2018-04-12T01:09:52.984Z,93833.13
2018-04-12T01:12:21.406Z,93833.42
2018-04-12T01:14:49.784Z,93828.73
2018-04-12T01:17:18.182Z,93835.35
2018-04-12T01:19:46.671Z,93834.51
2018-04-12T01:22:18.249Z,93829.27
2018-04-12T01:24:46.732Z,93826.33
2018-04-12T01:27:15.463Z,93816.94
2018-04-12T01:29:43.843Z,93826.06
2018-04-12T01:32:12.213Z,93818.23
2018-04-12T01:34:40.587Z,93818.39
2018-04-12T01:37:08.990Z,93812.39
2018-04-12T01:39:37.448Z,93812.47
2018-04-12T01:42:05.809Z,93812.75
2018-04-12T01:44:34.181Z,93805.41
2018-04-12T01:47:02.549Z,93798.92
2018-04-12T01:49:30.927Z,93800.59
2018-04-12T01:51:59.485Z,93799.70
2018-04-12T01:54:27.854Z,93802.47
2018-04-12T01:56:56.214Z,93789.64
2018-04-12T01:59:24.575Z,93793.59
2018-04-12T02:01:52.931Z,93788.98
2018-04-12T02:04:21.323Z,93781.36
2018-04-12T02:06:49.698Z,93780.52
2018-04-12T02:09:18.079Z,93775.02
2018-04-12T02:11:46.465Z,93780.92
2018-04-12T02:14:14.830Z,93770.66
2018-04-12T02:16:43.202Z,93770.81
2018-04-12T02:19:11.609Z,93774.71
2018-04-12T02:21:39.968Z,93763.48
2018-04-12T02:24:08.336Z,93772.80
2018-04-12T02:26:36.817Z,93772.05
2018-04-12T02:29:05.367Z,93762.62
2018-04-12T02:31:33.744Z,93760.95
2018-04-12T02:34:02.137Z,93758.05
2018-04-12T02:36:30.511Z,93758.12
2018-04-12T02:38:58.963Z,93743.92
2018-04-12T02:41:27.339Z,93739.26
2018-04-12T02:43:55.713Z,93742.14
2018-04-12T02:46:24.112Z,93742.02
2018-04-12T02:48:52.506Z,93735.78
2018-04-12T02:51:20.894Z,93734.63
2018-04-12T02:53:49.307Z,93741.88
2018-04-12T02:56:17.669Z,93736.87
2018-04-12T02:58:46.262Z,93725.34
2018-04-12T03:01:14.637Z,93722.97
2018-04-12T03:03:43.027Z,93714.34
2018-04-12T03:06:11.398Z,93717.81
2018-04-12T03:08:39.871Z,93713.00
2018-04-12T03:11:08.332Z,93716.12
2018-04-12T03:13:36.699Z,93709.63
2018-04-12T03:16:05.077Z,93712.94
2018-04-12T03:18:33.605Z,93710.70
2018-04-12T03:21:01.975Z,93708.17
2018-04-12T03:23:30.427Z,93703.23
2018-04-12T03:25:58.793Z,93701.88
2018-04-12T03:28:27.337Z,93703.31
2018-04-12T03:30:55.710Z,93697.15
2018-04-12T03:33:24.146Z,93697.94
2018-04-12T03:35:52.513Z,93694.28
2018-04-12T03:38:20.881Z,93693.00
2018-04-12T03:40:49.321Z,93691.23
2018-04-12T03:43:17.786Z,93688.20
2018-04-12T03:45:46.156Z,93689.97
2018-04-12T03:48:14.541Z,93683.52
2018-04-12T03:50:42.922Z,93679.05
2018-04-12T03:53:11.333Z,93680.31
2018-04-12T03:55:39.739Z,93675.17
2018-04-12T03:58:08.119Z,93677.25
2018-04-12T04:00:36.501Z,93672.00
2018-04-12T04:03:04.883Z,93679.14
2018-04-12T04:05:33.332Z,93673.39
2018-04-12T04:08:01.767Z,93675.64
2018-04-12T04:10:30.138Z,93678.31
2018-04-12T04:12:58.505Z,93671.77
2018-04-12T04:15:38.549Z,93672.95
2018-04-12T04:18:18.598Z,93673.23
2018-04-12T04:20:58.793Z,93672.06
2018-04-12T04:23:27.253Z,93674.70
2018-04-12T04:25:55.697Z,93678.78
2018-04-12T04:28:24.130Z,93668.05
2018-04-12T04:30:52.521Z,93664.85
2018-04-12T04:33:20.898Z,93665.27
2018-04-12T04:35:49.287Z,93669.61
2018-04-12T04:38:17.758Z,93672.34
2018-04-12T04:40:46.144Z,93662.92
2018-04-12T04:43:14.529Z,93657.31
2018-04-12T04:45:42.953Z,93665.21
2018-04-12T04:48:11.340Z,93655.68
2018-04-12T04:50:39.746Z,93655.98
2018-04-12T04:53:08.268Z,93658.54
2018-04-12T04:55:36.667Z,93658.01
2018-04-12T04:58:05.392Z,93647.86
2018-04-12T05:00:34.541Z,93654.08
2018-04-12T05:03:02.950Z,93651.41
2018-04-12T05:05:31.310Z,93644.95
2018-04-12T05:07:59.802Z,93646.65
2018-04-12T05:10:29.444Z,93634.73
2018-04-12T05:12:57.961Z,93640.11
2018-04-12T05:15:26.419Z,93639.11
2018-04-12T05:17:54.851Z,93635.75
2018-04-12T05:20:23.285Z,93635.81
2018-04-12T05:22:51.785Z,93634.23
2018-04-12T05:25:20.217Z,93629.48
2018-04-12T05:27:48.958Z,93625.86
2018-04-12T05:30:17.321Z,93624.06
2018-04-12T05:32:45.700Z,93629.99
2018-04-12T05:35:14.110Z,93631.98
2018-04-12T05:37:42.529Z,93626.83
2018-04-12T05:40:10.959Z,93626.70
2018-04-12T05:42:39.346Z,93621.23
2018-04-12T05:45:08.822Z,93622.71
2018-04-12T05:47:37.487Z,93622.69
2018-04-12T05:50:05.937Z,93621.94
2018-04-12T05:52:34.441Z,93617.00
2018-04-12T05:55:03.081Z,93621.47
2018-04-12T05:57:31.613Z,93613.28
2018-04-12T06:00:00.006Z,93607.08
2018-04-12T06:02:28.561Z,93611.58
2018-04-12T06:04:57.017Z,93613.44
2018-04-12T06:07:25.494Z,93611.91
2018-04-12T06:09:53.911Z,93610.12
2018-04-12T06:12:22.299Z,93614.83
2018-04-12T06:14:50.818Z,93601.55
2018-04-12T06:17:19.238Z,93617.03
2018-04-12T06:19:47.684Z,93614.50
2018-04-12T06:22:16.203Z,93611.66
2018-04-12T06:24:46.425Z,93613.00
2018-04-12T06:27:14.909Z,93611.97
2018-04-12T06:29:43.321Z,93609.08
2018-04-12T06:32:11.730Z,93604.24
2018-04-12T06:34:40.129Z,93607.39
2018-04-12T06:37:08.542Z,93611.13
2018-04-12T06:39:37.251Z,93607.66
2018-04-12T06:42:05.711Z,93610.19
2018-04-12T06:44:34.141Z,93607.30
2018-04-12T06:47:02.581Z,93624.27
2018-04-12T06:49:31.033Z,93624.97
2018-04-12T06:51:59.552Z,93626.20
2018-04-12T06:54:28.123Z,93627.86
2018-04-12T06:56:56.612Z,93622.58
2018-04-12T06:59:25.089Z,93612.02
2018-04-12T07:01:53.669Z,93608.66
2018-04-12T07:04:22.180Z,93612.39
2018-04-12T07:06:50.597Z,93621.53
2018-04-12T07:09:19.372Z,93612.91
2018-04-12T07:11:47.813Z,93613.87
2018-04-12T07:14:16.206Z,93614.66
2018-04-12T07:16:44.595Z,93609.95
2018-04-12T07:19:13.211Z,93600.23
2018-04-12T07:21:41.747Z,93604.66
2018-04-12T07:24:10.231Z,93599.66
2018-04-12T07:26:38.935Z,93597.64
2018-04-12T07:29:07.333Z,93594.77
2018-04-12T07:31:35.799Z,93589.48
2018-04-12T07:34:06.972Z,93590.35
2018-04-12T07:36:35.558Z,93587.77
2018-04-12T07:39:04.007Z,93586.05
2018-04-12T07:41:32.431Z,93583.73
2018-04-12T07:44:00.956Z,93586.80
2018-04-12T07:46:29.604Z,93589.00
2018-04-12T07:48:58.029Z,93585.33
2018-04-12T07:51:26.593Z,93592.97
2018-04-12T07:53:54.995Z,93594.66
2018-04-12T07:56:23.455Z,93596.63
2018-04-12T07:58:51.816Z,93589.03
2018-04-12T08:01:20.186Z,93568.53
2018-04-12T08:03:48.548Z,93555.93
2018-04-12T08:06:16.996Z,93566.27
2018-04-12T08:08:45.436Z,93562.30
2018-04-12T08:11:13.820Z,93565.96
2018-04-12T08:13:42.221Z,93574.52
2018-04-12T08:16:10.629Z,93570.77
2018-04-12T08:18:39.029Z,93576.05
2018-04-12T08:21:07.585Z,93571.28
2018-04-12T08:23:36.041Z,93565.76
2018-04-12T08:26:04.423Z,93554.66
2018-04-12T08:28:32.891Z,93559.56
2018-04-12T08:31:01.301Z,93551.50
2018-04-12T08:33:29.829Z,93550.53
2018-04-12T08:35:58.213Z,93539.19
2018-04-12T08:38:26.628Z,93543.88
2018-04-12T08:40:55.021Z,93538.14
2018-04-12T08:43:23.422Z,93532.52
2018-04-12T08:45:51.892Z,93539.55
2018-04-12T08:48:20.273Z,93540.60
2018-04-12T08:50:48.729Z,93546.36
2018-04-12T08:53:17.133Z,93552.32
2018-04-12T08:55:45.558Z,93542.69
2018-04-12T08:58:13.951Z,93544.03
2018-04-12T09:00:42.371Z,93540.09
2018-04-12T09:03:10.911Z,93533.58
2018-04-12T09:05:39.306Z,93544.48
2018-04-12T09:08:08.408Z,93540.52
2018-04-12T09:10:36.908Z,93550.85
2018-04-12T09:13:05.330Z,93545.97
2018-04-12T09:15:33.775Z,93541.00
2018-04-12T09:18:02.242Z,93530.25
2018-04-12T09:20:30.657Z,93522.87
2018-04-12T09:22:59.058Z,93524.27
2018-04-12T09:25:27.461Z,93523.84
2018-04-12T09:27:55.914Z,93528.03
2018-04-12T09:30:24.309Z,93527.78
2018-04-12T09:32:52.730Z,93536.36
2018-04-12T09:35:21.138Z,93530.70
2018-04-12T09:37:49.519Z,93532.59
2018-04-12T09:40:18.062Z,93537.11
2018-04-12T09:42:46.491Z,93528.38
2018-04-12T09:45:14.898Z,93516.03
2018-04-12T09:47:43.369Z,93516.88
2018-04-12T09:50:11.774Z,93527.81
2018-04-12T09:52:40.217Z,93524.48
2018-04-12T09:55:08.606Z,93520.40
2018-04-12T09:57:37.150Z,93517.56
2018-04-12T10:00:05.593Z,93514.33
2018-04-12T10:05:36.352Z,93504.89
2018-04-12T10:08:10.490Z,93512.38
2018-04-12T10:10:38.865Z,93494.41
2018-04-12T10:13:07.282Z,93493.11
2018-04-12T10:15:35.768Z,93505.72
2018-04-12T10:18:04.173Z,93502.77
2018-04-12T10:20:32.638Z,93497.42
2018-04-12T10:23:01.057Z,93504.51
2018-04-12T10:25:29.463Z,93498.41
2018-04-12T10:27:57.891Z,93500.27
2018-04-12T10:30:26.297Z,93508.55
2018-04-12T10:32:55.029Z,93511.05
2018-04-12T10:35:23.579Z,93506.66
2018-04-12T10:37:52.156Z,93515.56
2018-04-12T10:40:20.935Z,93513.31
2018-04-12T10:42:49.726Z,93510.39
2018-04-12T10:45:18.556Z,93512.25
2018-04-12T10:47:47.364Z,93538.78
2018-04-12T10:50:16.009Z,93524.66
2018-04-12T10:52:44.781Z,93532.16
2018-04-12T10:55:13.631Z,93528.95
2018-04-12T10:57:42.466Z,93537.20
2018-04-12T11:00:11.344Z,93525.94
2018-04-12T11:02:39.990Z,93514.37
2018-04-12T11:05:08.552Z,93514.56
2018-04-12T11:07:36.981Z,93518.46
2018-04-12T11:10:05.564Z,93501.58
2018-04-12T11:12:33.994Z,93495.48
2018-04-12T11:15:02.489Z,93494.30
2018-04-12T11:17:30.947Z,93508.77
2018-04-12T11:19:59.398Z,93520.09
2018-04-12T11:22:27.845Z,93524.07
2018-04-12T11:24:56.258Z,93532.22
2018-04-12T11:27:24.764Z,93518.78
2018-04-12T11:29:53.197Z,93509.77
2018-04-12T11:32:21.591Z,93510.39
2018-04-12T11:34:50.056Z,93513.03
2018-04-12T11:37:18.458Z,93497.60
2018-04-12T11:39:46.951Z,93501.06
2018-04-12T11:42:15.349Z,93501.86
2018-04-12T11:44:43.789Z,93491.03
2018-04-12T11:47:12.261Z,93488.58
2018-04-12T11:49:40.693Z,93482.63
2018-04-12T11:52:09.155Z,93480.27
2018-04-12T11:54:37.546Z,93481.03
2018-04-12T11:57:06.003Z,93471.33
2018-04-12T11:59:34.410Z,93471.86
2018-04-12T12:02:02.805Z,93484.20
2018-04-12T12:04:31.398Z,93480.12
2018-04-12T12:06:59.951Z,93479.47
2018-04-12T12:09:28.313Z,93474.75
2018-04-12T12:11:56.711Z,93480.52
2018-04-12T12:14:25.173Z,93480.44
2018-04-12T12:16:53.641Z,93482.83
2018-04-12T12:19:22.101Z,93486.97
2018-04-12T12:21:50.492Z,93487.02
2018-04-12T12:24:18.908Z,93480.85
2018-04-12T12:26:47.284Z,93483.38
2018-04-12T12:29:15.746Z,93482.47
2018-04-12T12:31:44.159Z,93490.50
2018-04-12T12:34:12.591Z,93488.03
2018-04-12T12:36:40.993Z,93483.42
2018-04-12T12:39:09.522Z,93482.55
2018-04-12T12:41:37.965Z,93484.17
2018-04-12T12:44:06.363Z,93504.07
2018-04-12T12:46:34.782Z,93499.59
2018-04-12T12:49:03.181Z,93495.03
2018-04-12T12:51:31.706Z,93484.08
2018-04-12T12:54:00.244Z,93481.55
2018-04-12T12:56:28.665Z,93477.34
2018-04-12T12:58:57.186Z,93496.00
2018-04-12T13:01:25.638Z,93486.91
2018-04-12T13:03:54.126Z,93489.83
2018-04-12T13:06:22.596Z,93502.38
2018-04-12T13:08:50.997Z,93503.54
2018-04-12T13:11:19.783Z,93498.16
2018-04-12T13:13:48.206Z,93494.22
2018-04-12T13:16:16.585Z,93489.70
2018-04-12T13:18:45.055Z,93479.44
2018-04-12T13:21:13.458Z,93470.08
2018-04-12T13:23:41.921Z,93463.58
2018-04-12T13:26:10.297Z,93454.90
2018-04-12T13:28:38.690Z,93462.64
2018-04-12T13:31:07.117Z,93462.34
2018-04-12T13:33:35.516Z,93464.86
2018-04-12T13:36:03.975Z,93465.50
2018-04-12T13:38:32.384Z,93476.27
2018-04-12T13:41:00.945Z,93484.25
2018-04-12T13:43:29.337Z,93490.30
2018-04-12T13:45:57.774Z,93490.41
2018-04-12T13:48:26.241Z,93486.47
2018-04-12T13:51:00.632Z,93490.44
2018-04-12T13:53:29.132Z,93488.66
2018-04-12T13:56:00.720Z,93488.41
2018-04-12T13:58:29.252Z,93501.28
2018-04-12T14:00:57.789Z,93507.98
2018-04-12T14:03:26.351Z,93515.59
2018-04-12T14:05:57.141Z,93510.62
2018-04-12T14:08:25.602Z,93519.00
2018-04-12T14:10:54.644Z,93517.78
2018-04-12T14:13:23.685Z,93525.13
2018-04-12T14:15:52.210Z,93527.96
2018-04-12T14:18:20.889Z,93536.17
2018-04-12T14:20:49.425Z,93527.23
2018-04-12T14:23:18.022Z,93541.70
2018-04-12T14:25:46.432Z,93540.53
2018-04-12T14:28:14.873Z,93540.89
2018-04-12T14:30:43.248Z,93551.17
2018-04-12T14:33:11.935Z,93541.53
2018-04-12T14:35:40.453Z,93551.18
2018-04-12T14:38:08.859Z,93540.95
2018-04-12T14:40:37.367Z,93542.06
2018-04-12T14:43:05.763Z,93540.38
2018-04-12T14:45:34.250Z,93546.08
2018-04-12T14:48:02.666Z,93539.13
2018-04-12T14:50:31.148Z,93538.15
2018-04-12T14:53:00.596Z,93533.09
2018-04-12T14:55:29.162Z,93533.96
2018-04-12T14:57:57.647Z,93532.42
2018-04-12T15:00:26.065Z,93538.90
2018-04-12T15:02:54.577Z,93532.72
2018-04-12T15:05:22.997Z,93537.30
2018-04-12T15:07:51.438Z,93533.31
2018-04-12T15:10:19.890Z,93530.42
2018-04-12T15:12:48.367Z,93541.92
2018-04-12T15:15:18.710Z,93536.45
2018-04-12T15:17:47.127Z,93540.83
2018-04-12T15:20:15.730Z,93537.09
2018-04-12T15:22:45.094Z,93529.45
2018-04-12T15:25:13.536Z,93543.63
2018-04-12T15:27:42.075Z,93530.98
2018-04-12T15:30:10.539Z,93540.42
2018-04-12T15:32:39.144Z,93542.63
2018-04-12T15:35:07.611Z,93541.03
2018-04-12T15:37:37.001Z,93533.37
2018-04-12T15:40:05.418Z,93528.08
2018-04-12T15:42:34.786Z,93529.95
2018-04-12T15:45:03.260Z,93532.78
2018-04-12T15:47:32.598Z,93531.58
2018-04-12T15:50:01.070Z,93536.86
2018-04-12T15:52:29.499Z,93529.61
2018-04-12T15:54:57.977Z,93541.18
2018-04-12T15:57:26.489Z,93531.34
2018-04-12T15:59:54.917Z,93535.82
2018-04-12T16:02:28.839Z,93537.78
2018-04-12T16:04:59.384Z,93545.58
2018-04-12T16:07:27.885Z,93546.50
2018-04-12T16:09:56.426Z,93538.05
2018-04-12T16:12:24.849Z,93544.62
2018-04-12T16:14:53.520Z,93540.55
2018-04-12T16:17:23.475Z,93541.78
2018-04-12T16:19:51.885Z,93557.94
2018-04-12T16:22:20.284Z,93551.73
2018-04-12T16:24:48.663Z,93551.28
2018-04-12T16:27:17.134Z,93557.61
2018-04-12T16:29:45.593Z,93557.86
2018-04-12T16:32:13.992Z,93553.34
2018-04-12T16:34:42.363Z,93541.45
2018-04-12T16:37:13.717Z,93540.00
2018-04-12T16:39:42.253Z,93543.41
2018-04-12T16:42:10.620Z,93542.16
2018-04-12T16:44:39.171Z,93547.82
2018-04-12T16:47:08.055Z,93550.03
2018-04-12T16:49:37.379Z,93552.83
2018-04-12T16:52:05.801Z,93545.14
2018-04-12T16:54:34.197Z,93553.67
2018-04-12T16:57:02.675Z,93544.08
2018-04-12T16:59:31.475Z,93548.61
2018-04-12T17:02:00.057Z,93549.39
2018-04-12T17:04:28.450Z,93557.20
2018-04-12T17:06:56.890Z,93554.72
2018-04-12T17:09:25.370Z,93566.53
2018-04-12T17:11:53.786Z,93566.60
2018-04-12T17:14:22.213Z,93562.75
2018-04-12T17:16:50.754Z,93560.32
2018-04-12T17:19:19.257Z,93566.50
2018-04-12T17:21:47.742Z,93572.80
2018-04-12T17:24:16.214Z,93572.62
2018-04-12T17:26:44.589Z,93581.89
2018-04-12T17:29:12.982Z,93581.70
2018-04-12T17:31:41.452Z,93584.58
2018-04-12T17:34:09.825Z,93588.34
2018-04-12T17:36:38.204Z,93595.34
2018-04-12T17:39:06.716Z,93595.23
2018-04-12T17:41:35.086Z,93594.53
2018-04-12T17:44:03.545Z,93592.27
2018-04-12T17:46:31.946Z,93598.87
2018-04-12T17:49:00.330Z,93600.23
2018-04-12T17:51:28.701Z,93612.23
2018-04-12T17:53:57.912Z,93612.55
2018-04-12T17:56:26.292Z,93620.93
2018-04-12T17:58:54.698Z,93621.19
2018-04-12T18:01:23.067Z,93627.73
2018-04-12T18:03:51.434Z,93629.54
2018-04-12T18:06:19.906Z,93632.88
2018-04-12T18:08:48.583Z,93637.09
2018-04-12T18:11:16.942Z,93633.36
2018-04-12T18:13:45.309Z,93633.98
2018-04-12T18:16:13.940Z,93637.13
2018-04-12T18:18:42.348Z,93640.44
2018-04-12T18:21:10.800Z,93645.77
2018-04-12T18:23:39.194Z,93652.47
2018-04-12T18:26:07.581Z,93661.17
2018-04-12T18:28:35.968Z,93668.43
2018-04-12T18:31:04.381Z,93680.29
2018-04-12T18:33:32.796Z,93677.61
2018-04-12T18:36:01.409Z,93680.02
2018-04-12T18:38:29.821Z,93693.25
2018-04-12T18:40:58.158Z,93693.61
2018-04-12T18:43:26.533Z,93685.94
2018-04-12T18:45:54.903Z,93691.27
2018-04-12T18:48:23.326Z,93690.64
2018-04-12T18:50:52.855Z,93695.61
2018-04-12T18:53:21.235Z,93701.08
2018-04-12T18:55:49.616Z,93697.05
2018-04-12T18:58:18.003Z,93695.63
2018-04-12T19:00:46.628Z,93693.88
2018-04-12T19:03:15.033Z,93698.98
2018-04-12T19:05:43.439Z,93702.09
2018-04-12T19:08:12.414Z,93699.58
2018-04-12T19:10:40.861Z,93698.89
2018-04-12T19:13:09.317Z,93700.94
2018-04-12T19:15:37.824Z,93706.97
2018-04-12T19:18:06.404Z,93705.36
2018-04-12T19:20:34.831Z,93706.59
2018-04-12T19:23:03.259Z,93700.35
2018-04-12T19:25:31.696Z,93701.78
2018-04-12T19:28:00.096Z,93702.47
2018-04-12T19:30:31.706Z,93705.42
2018-04-12T19:33:00.097Z,93703.58
2018-04-12T19:35:28.868Z,93696.48
2018-04-12T19:37:57.282Z,93696.39
2018-04-12T19:40:25.674Z,93703.25
2018-04-12T19:42:54.106Z,93703.75
2018-04-12T19:45:22.584Z,93701.25
2018-04-12T19:47:51.160Z,93702.12
2018-04-12T19:50:19.721Z,93707.45
2018-04-12T19:52:48.256Z,93709.69
2018-04-12T19:55:16.671Z,93716.91
2018-04-12T19:57:45.081Z,93708.25
2018-04-12T20:00:13.830Z,93710.91
2018-04-12T20:02:42.271Z,93709.95
2018-04-12T20:05:10.776Z,93718.12
2018-04-12T20:07:39.217Z,93710.38
2018-04-12T20:10:07.617Z,93707.91
2018-04-12T20:12:36.081Z,93710.78
2018-04-12T20:15:04.464Z,93706.05
2018-04-12T20:17:32.865Z,93709.36
2018-04-12T20:20:01.443Z,93705.38
2018-04-12T20:22:29.962Z,93703.25
2018-04-12T20:24:58.532Z,93704.56
2018-04-12T20:27:27.797Z,93704.87
2018-04-12T20:29:56.178Z,93697.63
2018-04-12T20:32:24.570Z,93697.41
2018-04-12T20:34:52.965Z,93699.05
2018-04-12T20:37:21.447Z,93699.73
2018-04-12T20:39:49.853Z,93697.95
2018-04-12T20:42:18.237Z,93703.30
2018-04-12T20:44:46.713Z,93707.65
2018-04-12T20:47:15.111Z,93714.19
2018-04-12T20:49:43.827Z,93715.66
2018-04-12T20:52:12.400Z,93713.05
2018-04-12T20:54:40.836Z,93715.03
2018-04-12T20:57:09.227Z,93715.03
2018-04-12T20:59:37.582Z,93707.22
2018-04-12T21:02:06.020Z,93712.95
2018-04-12T21:04:34.382Z,93712.65
2018-04-12T21:07:02.785Z,93709.30
2018-04-12T21:09:31.160Z,93717.92
2018-04-12T21:11:59.566Z,93714.98
2018-04-12T21:14:27.924Z,93724.52
2018-04-12T21:16:56.381Z,93727.93
2018-04-12T21:19:24.796Z,93730.63
2018-04-12T21:21:53.248Z,93738.95
2018-04-12T21:24:21.671Z,93740.19
2018-04-12T21:26:50.135Z,93747.05
2018-04-12T21:29:18.696Z,93754.55
2018-04-12T21:31:47.323Z,93752.54
2018-04-12T21:34:15.750Z,93747.20
2018-04-12T21:36:44.123Z,93745.27
2018-04-12T21:39:12.466Z,93743.00
2018-04-12T21:41:40.902Z,93738.95
2018-04-12T21:44:09.286Z,93739.76
2018-04-12T21:46:37.687Z,93735.64
2018-04-12T21:49:06.233Z,93742.02
2018-04-12T21:51:34.611Z,93734.56
2018-04-12T21:54:02.998Z,93716.10
2018-04-12T21:56:31.407Z,93716.47
2018-04-12T21:58:59.793Z,93721.14
2018-04-12T22:01:28.257Z,93718.69
2018-04-12T22:03:56.705Z,93715.27
2018-04-12T22:06:25.161Z,93710.86
2018-04-12T22:08:53.554Z,93711.28
2018-04-12T22:11:22.083Z,93706.52
2018-04-12T22:13:50.490Z,93706.23
2018-04-12T22:16:18.891Z,93707.04
2018-04-12T22:18:47.294Z,93710.95
2018-04-12T22:21:15.692Z,93717.03
2018-04-12T22:23:44.574Z,93714.17
2018-04-12T22:26:13.041Z,93714.83
2018-04-12T22:28:41.440Z,93714.34
2018-04-12T22:31:10.741Z,93704.34
2018-04-12T22:33:39.124Z,93700.48
2018-04-12T22:36:07.635Z,93696.91
2018-04-12T22:38:36.036Z,93694.69
2018-04-12T22:41:04.411Z,93694.64
2018-04-12T22:43:32.828Z,93699.03
2018-04-12T22:46:01.225Z,93699.27
2018-04-12T22:48:29.615Z,93700.36
2018-04-12T22:50:58.048Z,93692.91
2018-04-12T22:53:26.405Z,93695.35
2018-04-12T22:55:54.843Z,93697.64
2018-04-12T22:58:23.283Z,93700.66
2018-04-12T23:00:51.658Z,93689.81
2018-04-12T23:03:21.047Z,93686.84
2018-04-12T23:05:49.436Z,93694.23
2018-04-12T23:08:17.866Z,93697.41
2018-04-12T23:10:46.308Z,93693.38
2018-04-12T23:13:14.748Z,93690.94
2018-04-12T23:15:43.268Z,93691.37
2018-04-12T23:18:11.693Z,93702.44
2018-04-12T23:20:40.051Z,93699.92
2018-04-12T23:23:08.446Z,93698.33
2018-04-12T23:25:37.065Z,93695.98
2018-04-12T23:28:05.431Z,93701.47
2018-04-12T23:30:33.782Z,93706.52
2018-04-12T23:33:02.293Z,93713.47
2018-04-12T23:35:30.636Z,93709.73
2018-04-12T23:37:59.007Z,93710.85
2018-04-12T23:40:27.357Z,93717.21
2018-04-12T23:42:55.718Z,93715.77
2018-04-12T23:45:24.108Z,93713.91
2018-04-12T23:47:52.501Z,93711.80
2018-04-12T23:50:20.894Z,93708.52
2018-04-12T23:52:49.249Z,93704.08
2018-04-12T23:55:17.609Z,93709.01
2018-04-12T23:57:45.954Z,93707.23
